Time;durP1;ratioP1;P1;durP2;ratioP2;P2;SDS_P1;SDS_P2;PMS_P1;PMS_P2;Temp;Humidity;BMP_temperature;BMP_pressure;BME280_temperature;BME280_humidity;BME280_pressure;Samples;Min_cycle;Max_cycle;Signal;HPM_P1;HPM_P2
2023/12/20 00:02:10;;;;;;;8.50;6.53;;;8.70;99.90;;;;;;5073007;28;20190;-70
2023/12/20 00:04:36;;;;;;;7.57;5.20;;;8.70;99.90;;;;;;5073065;28;20171;-71
2023/12/20 00:07:02;;;;;;;8.00;5.33;;;8.70;99.90;;;;;;5071359;28;20592;-71
2023/12/20 00:09:27;;;;;;;9.43;5.30;;;8.70;99.90;;;;;;5071671;28;20170;-71
2023/12/20 00:11:53;;;;;;;7.43;5.20;;;8.70;99.90;;;;;;5072482;28;20240;-71
2023/12/20 00:14:18;;;;;;;9.30;6.90;;;8.80;99.90;;;;;;5072896;28;20626;-71
2023/12/20 00:16:44;;;;;;;10.33;5.80;;;8.80;99.90;;;;;;5072840;28;20245;-73
2023/12/20 00:19:09;;;;;;;6.47;5.17;;;8.80;99.90;;;;;;5072916;28;20162;-72
2023/12/20 00:21:35;;;;;;;5.83;4.43;;;8.90;99.90;;;;;;5072499;28;20224;-71
2023/12/20 00:24:00;;;;;;;4.97;4.23;;;8.90;99.90;;;;;;5072636;28;20173;-71
2023/12/20 00:26:28;;;;;;;6.70;4.77;;;9.00;99.90;;;;;;5073230;28;20170;-72
2023/12/20 00:28:53;;;;;;;5.43;4.50;;;8.90;99.90;;;;;;5069339;28;20169;-72
2023/12/20 00:31:19;;;;;;;5.27;4.30;;;8.90;99.90;;;;;;5069935;28;20428;-70
2023/12/20 00:33:46;;;;;;;7.23;4.73;;;8.90;99.90;;;;;;5071821;28;20192;-72
2023/12/20 00:36:11;;;;;;;6.30;4.70;;;8.90;99.90;;;;;;5072437;28;20162;-71
2023/12/20 00:38:37;;;;;;;9.70;5.30;;;8.90;99.90;;;;;;5070733;28;20891;-71
2023/12/20 00:41:02;;;;;;;6.07;4.63;;;8.90;99.90;;;;;;5072190;28;20653;-70
2023/12/20 00:43:28;;;;;;;4.80;4.30;;;8.80;99.90;;;;;;5072290;28;20170;-71
2023/12/20 00:45:53;;;;;;;9.00;5.80;;;8.80;99.90;;;;;;5072353;28;20170;-71
2023/12/20 00:48:19;;;;;;;9.30;5.53;;;8.80;99.90;;;;;;5072370;28;20167;-70
2023/12/20 00:50:44;;;;;;;9.40;4.90;;;8.70;99.90;;;;;;5072058;28;20181;-71
2023/12/20 00:53:10;;;;;;;7.00;4.53;;;8.70;99.90;;;;;;5072009;28;20201;-71
2023/12/20 00:55:35;;;;;;;7.00;5.00;;;8.80;99.90;;;;;;5072298;28;20162;-71
2023/12/20 00:58:01;;;;;;;8.37;5.73;;;8.80;99.90;;;;;;5072221;28;20202;-70
2023/12/20 01:00:27;;;;;;;9.07;5.30;;;8.70;99.90;;;;;;5071971;28;20245;-71
2023/12/20 01:02:52;;;;;;;9.97;5.97;;;8.70;99.90;;;;;;5068123;28;20194;-71
2023/12/20 01:05:19;;;;;;;7.90;5.93;;;8.70;99.90;;;;;;5072002;28;20540;-70
2023/12/20 01:07:44;;;;;;;8.00;5.40;;;8.60;99.90;;;;;;5071911;28;20171;-71
2023/12/20 01:10:10;;;;;;;8.10;5.30;;;8.40;99.90;;;;;;5071678;28;20413;-71
2023/12/20 01:12:36;;;;;;;8.67;5.13;;;8.30;99.90;;;;;;5070215;28;20205;-71
2023/12/20 01:15:01;;;;;;;9.57;6.73;;;8.20;99.90;;;;;;5071653;28;20170;-71
2023/12/20 01:17:27;;;;;;;11.73;6.23;;;8.10;99.90;;;;;;5072019;28;20404;-72
2023/12/20 01:19:52;;;;;;;12.53;8.17;;;8.00;99.90;;;;;;5071627;28;20174;-71
2023/12/20 01:22:18;;;;;;;14.37;8.33;;;8.10;99.90;;;;;;5071646;28;20193;-71
2023/12/20 01:24:44;;;;;;;12.13;7.20;;;8.10;99.90;;;;;;5071480;28;20197;-71
2023/12/20 01:27:09;;;;;;;12.00;7.43;;;8.20;99.90;;;;;;5071603;28;20831;-71
2023/12/20 01:29:35;;;;;;;9.37;7.20;;;8.30;99.90;;;;;;5066066;28;20544;-72
2023/12/20 01:32:01;;;;;;;14.10;8.50;;;8.30;99.90;;;;;;5071424;28;20275;-71
2023/12/20 01:34:26;;;;;;;12.70;8.37;;;8.40;99.90;;;;;;5071766;28;20170;-71
2023/12/20 01:36:52;;;;;;;11.13;8.00;;;8.40;99.90;;;;;;5071650;28;20162;-70
2023/12/20 01:39:17;;;;;;;15.33;8.50;;;8.30;99.90;;;;;;5071853;28;20175;-71
2023/12/20 01:41:43;;;;;;;10.87;7.30;;;8.20;99.90;;;;;;5071481;28;20228;-71
2023/12/20 01:44:08;;;;;;;13.57;7.00;;;8.10;99.90;;;;;;5071662;28;20564;-71
2023/12/20 01:46:34;;;;;;;11.57;8.37;;;8.10;99.90;;;;;;5071698;28;20174;-70
2023/12/20 01:49:00;;;;;;;10.67;8.37;;;8.10;99.90;;;;;;5071587;28;20215;-69
2023/12/20 01:51:27;;;;;;;8.23;5.70;;;8.00;99.90;;;;;;5073369;28;20239;-71
2023/12/20 01:53:53;;;;;;;10.13;6.30;;;8.00;99.90;;;;;;5075429;28;20436;-71
2023/12/20 01:56:20;;;;;;;17.67;5.77;;;7.90;99.90;;;;;;5075576;28;20412;-71
2023/12/20 01:58:47;;;;;;;10.33;5.33;;;7.80;99.90;;;;;;5075525;28;20415;-71
2023/12/20 02:01:13;;;;;;;6.17;4.43;;;7.70;99.90;;;;;;5075336;28;20470;-70
2023/12/20 02:03:40;;;;;;;13.17;4.87;;;7.60;99.90;;;;;;5075372;28;20403;-70
2023/12/20 02:06:07;;;;;;;5.53;3.80;;;7.50;99.90;;;;;;5075505;28;20486;-71
2023/12/20 02:08:34;;;;;;;6.33;4.80;;;7.40;99.90;;;;;;5075416;28;20503;-72
2023/12/20 02:11:00;;;;;;;6.53;4.27;;;7.30;99.90;;;;;;5075135;28;20469;-70
2023/12/20 02:13:26;;;;;;;10.00;3.93;;;7.20;99.90;;;;;;5075145;28;20452;-71
2023/12/20 02:15:52;;;;;;;10.33;5.03;;;7.00;99.90;;;;;;5075343;28;20491;-70
2023/12/20 02:18:18;;;;;;;7.87;3.70;;;6.90;99.90;;;;;;5075170;28;20450;-71
2023/12/20 02:20:43;;;;;;;7.67;3.27;;;6.80;99.90;;;;;;5074859;28;20200;-71
2023/12/20 02:23:09;;;;;;;5.40;3.30;;;6.80;99.90;;;;;;5075025;28;20178;-70
2023/12/20 02:25:34;;;;;;;8.03;2.93;;;6.70;99.90;;;;;;5075095;28;20173;-69
2023/12/20 02:28:01;;;;;;;3.40;2.23;;;6.60;99.90;;;;;;5075026;28;20272;-71
2023/12/20 02:30:26;;;;;;;5.87;2.37;;;6.60;99.90;;;;;;5063702;28;20227;-70
2023/12/20 02:32:53;;;;;;;13.67;4.47;;;6.60;99.90;;;;;;5068656;28;20561;-71
2023/12/20 02:35:18;;;;;;;7.40;2.50;;;6.50;99.90;;;;;;5070256;28;20162;-71
2023/12/20 02:37:44;;;;;;;3.33;2.10;;;6.40;99.90;;;;;;5074522;28;20477;-71
2023/12/20 02:40:10;;;;;;;7.10;2.40;;;6.40;99.90;;;;;;5073566;28;20185;-71
2023/12/20 02:42:36;;;;;;;7.90;2.50;;;6.40;99.90;;;;;;5074580;28;20186;-71
2023/12/20 02:45:01;;;;;;;4.87;2.20;;;6.40;99.90;;;;;;5074743;28;20408;-70
2023/12/20 02:47:27;;;;;;;3.57;2.03;;;6.40;99.90;;;;;;5074655;28;20545;-70
2023/12/20 02:49:52;;;;;;;15.60;2.00;;;6.50;99.90;;;;;;5074425;28;20173;-71
2023/12/20 02:52:18;;;;;;;4.13;2.00;;;6.60;99.90;;;;;;5074307;28;20194;-71
2023/12/20 02:54:44;;;;;;;7.90;1.83;;;6.70;99.90;;;;;;5074377;28;20186;-71
2023/12/20 02:57:09;;;;;;;3.10;1.47;;;6.80;99.90;;;;;;5074530;28;20163;-70
2023/12/20 02:59:35;;;;;;;9.83;2.20;;;6.80;99.90;;;;;;5074294;28;20510;-70
2023/12/20 03:02:00;;;;;;;7.93;2.40;;;6.90;99.90;;;;;;5074235;28;20194;-71
2023/12/20 03:04:26;;;;;;;15.07;2.87;;;6.90;99.90;;;;;;5074239;28;20166;-71
2023/12/20 03:06:51;;;;;;;5.07;1.90;;;7.00;99.90;;;;;;5074314;28;20170;-70
2023/12/20 03:09:17;;;;;;;5.60;2.40;;;7.00;99.90;;;;;;5074143;28;20178;-71
2023/12/20 03:11:42;;;;;;;7.43;2.73;;;7.00;99.90;;;;;;5072551;28;20206;-71
2023/12/20 03:14:08;;;;;;;8.37;3.17;;;7.10;99.90;;;;;;5073932;28;20214;-70
2023/12/20 03:16:33;;;;;;;9.63;2.37;;;7.10;99.90;;;;;;5074156;28;20166;-70
2023/12/20 03:18:59;;;;;;;4.63;1.97;;;7.20;99.90;;;;;;5074076;28;20620;-71
2023/12/20 03:21:24;;;;;;;5.20;2.37;;;7.20;99.90;;;;;;5073822;28;20231;-71
2023/12/20 03:23:50;;;;;;;10.33;2.90;;;7.20;99.90;;;;;;5073914;28;20165;-70
2023/12/20 03:26:16;;;;;;;8.77;2.53;;;7.30;99.90;;;;;;5073966;28;20248;-71
2023/12/20 03:28:42;;;;;;;5.30;1.80;;;7.30;99.90;;;;;;5070165;28;20475;-71
2023/12/20 03:31:09;;;;;;;4.90;2.17;;;7.30;99.90;;;;;;5066351;28;20190;-71
2023/12/20 03:33:34;;;;;;;7.33;2.53;;;7.30;99.90;;;;;;5073427;28;20578;-71
2023/12/20 03:36:00;;;;;;;6.13;2.63;;;7.40;99.90;;;;;;5073654;28;20413;-70
2023/12/20 03:38:25;;;;;;;7.33;3.77;;;7.30;99.90;;;;;;5073723;28;20198;-71
2023/12/20 03:40:51;;;;;;;13.47;6.57;;;7.10;99.90;;;;;;5073285;28;20673;-70
2023/12/20 03:43:16;;;;;;;6.30;2.80;;;7.10;99.90;;;;;;5073464;28;20227;-71
2023/12/20 03:45:43;;;;;;;8.00;2.70;;;7.10;99.90;;;;;;5073553;28;20170;-70
2023/12/20 03:48:08;;;;;;;12.37;2.33;;;7.10;99.90;;;;;;5073503;28;20227;-70
2023/12/20 03:50:34;;;;;;;7.23;2.47;;;7.00;99.90;;;;;;5073293;28;20408;-70
2023/12/20 03:53:00;;;;;;;11.83;3.23;;;7.10;99.90;;;;;;5072870;28;20216;-70
2023/12/20 03:55:26;;;;;;;8.53;3.30;;;7.10;99.90;;;;;;5073352;28;20409;-71
2023/12/20 03:57:51;;;;;;;8.03;3.27;;;7.20;99.90;;;;;;5073295;28;20170;-71
2023/12/20 04:00:17;;;;;;;12.23;5.10;;;7.20;99.90;;;;;;5073114;28;20555;-70
2023/12/20 04:02:42;;;;;;;3.70;3.20;;;7.20;99.90;;;;;;5072942;28;20198;-71
2023/12/20 04:05:09;;;;;;;7.33;2.67;;;7.20;99.90;;;;;;5073141;28;20186;-70
2023/12/20 04:07:35;;;;;;;9.57;2.60;;;7.10;99.90;;;;;;5073153;28;20645;-71
2023/12/20 04:10:02;;;;;;;11.73;3.00;;;7.10;99.90;;;;;;5072859;28;20798;-70
2023/12/20 04:12:28;;;;;;;8.10;3.43;;;7.10;99.90;;;;;;5072648;28;20472;-71
2023/12/20 04:14:53;;;;;;;12.20;3.20;;;7.10;99.90;;;;;;5071204;28;20409;-71
2023/12/20 04:17:20;;;;;;;8.30;2.77;;;7.00;99.90;;;;;;5072990;28;20393;-71
2023/12/20 04:19:45;;;;;;;5.27;3.13;;;6.90;99.90;;;;;;5072739;28;20588;-72
2023/12/20 04:22:11;;;;;;;5.30;3.27;;;6.90;99.90;;;;;;5072710;28;20528;-70
2023/12/20 04:24:36;;;;;;;6.43;2.60;;;6.80;99.90;;;;;;5072844;28;20166;-70
2023/12/20 04:27:02;;;;;;;13.87;4.07;;;6.80;99.90;;;;;;5072783;28;20197;-71
2023/12/20 04:29:28;;;;;;;17.60;3.10;;;6.80;99.90;;;;;;5063736;28;20175;-71
2023/12/20 04:31:53;;;;;;;8.00;3.10;;;6.70;99.90;;;;;;5071257;28;20550;-71
2023/12/20 04:34:19;;;;;;;6.50;3.73;;;6.60;99.90;;;;;;5071171;28;20162;-70
2023/12/20 04:36:45;;;;;;;5.90;2.93;;;6.60;99.90;;;;;;5072590;28;20170;-71
2023/12/20 04:39:16;;;;;;;12.93;3.63;;;6.50;99.90;;;;;;5072321;28;20545;-70
2023/12/20 04:41:42;;;;;;;10.00;5.47;;;6.50;99.90;;;;;;5072246;28;20481;-71
2023/12/20 04:44:08;;;;;;;10.03;3.33;;;6.40;99.90;;;;;;5072347;28;20954;-71
2023/12/20 04:46:33;;;;;;;9.20;3.83;;;6.30;99.90;;;;;;5072169;28;20197;-70
2023/12/20 04:48:59;;;;;;;7.50;3.10;;;6.30;99.90;;;;;;5072259;28;20325;-71
2023/12/20 04:51:24;;;;;;;7.23;3.03;;;6.30;99.90;;;;;;5072157;28;20246;-71
2023/12/20 04:53:50;;;;;;;4.80;2.20;;;6.30;99.90;;;;;;5071980;28;20596;-71
2023/12/20 04:56:15;;;;;;;7.60;3.00;;;6.20;99.90;;;;;;5072282;28;20162;-71
2023/12/20 04:58:42;;;;;;;12.90;3.50;;;6.20;99.90;;;;;;5072250;28;20216;-70
2023/12/20 05:01:09;;;;;;;4.83;2.90;;;6.10;99.90;;;;;;5071920;28;20182;-71
2023/12/20 05:03:34;;;;;;;5.10;3.10;;;6.10;99.90;;;;;;5072093;28;20400;-71
2023/12/20 05:06:00;;;;;;;9.37;3.60;;;6.10;99.90;;;;;;5072125;28;20519;-71
2023/12/20 05:08:25;;;;;;;3.93;2.57;;;6.10;99.90;;;;;;5072067;28;20610;-71
2023/12/20 05:10:53;;;;;;;11.33;2.40;;;6.10;99.90;;;;;;5071878;28;20248;-72
2023/12/20 05:13:19;;;;;;;9.80;3.57;;;6.00;99.90;;;;;;5071806;28;20194;-72
2023/12/20 05:15:44;;;;;;;6.20;3.00;;;6.00;99.90;;;;;;5071965;28;20408;-72
2023/12/20 05:18:10;;;;;;;9.17;3.70;;;6.00;99.90;;;;;;5071974;28;20154;-71
2023/12/20 05:20:35;;;;;;;6.73;3.10;;;6.00;99.90;;;;;;5071814;28;20707;-70
2023/12/20 05:23:01;;;;;;;5.77;3.07;;;6.10;99.90;;;;;;5071506;28;20224;-72
2023/12/20 05:25:27;;;;;;;6.53;3.60;;;6.10;99.90;;;;;;5069699;28;20223;-71
2023/12/20 05:27:52;;;;;;;10.80;3.17;;;6.00;99.90;;;;;;5071798;28;20168;-71
2023/12/20 05:30:18;;;;;;;12.43;4.03;;;6.10;99.90;;;;;;5063247;28;20441;-70
2023/12/20 05:32:43;;;;;;;17.57;4.47;;;6.10;99.90;;;;;;5064584;28;20615;-71
2023/12/20 05:35:09;;;;;;;11.40;5.13;;;6.00;99.90;;;;;;5071706;28;20282;-72
2023/12/20 05:37:34;;;;;;;17.63;3.73;;;6.10;99.90;;;;;;5071680;28;20177;-71
2023/12/20 05:40:00;;;;;;;14.20;3.20;;;6.10;99.90;;;;;;5071353;28;20204;-71
2023/12/20 05:42:25;;;;;;;18.70;3.23;;;6.20;99.90;;;;;;5068643;28;20198;-71
2023/12/20 05:44:51;;;;;;;8.10;2.97;;;6.20;99.90;;;;;;5069175;28;20166;-71
2023/12/20 05:47:16;;;;;;;8.40;3.60;;;6.20;99.90;;;;;;5071451;28;20212;-71
2023/12/20 05:49:43;;;;;;;7.40;3.40;;;6.30;99.90;;;;;;5070929;28;20174;-71
2023/12/20 05:52:09;;;;;;;7.07;3.47;;;6.40;99.90;;;;;;5071414;28;20209;-72
2023/12/20 05:54:34;;;;;;;9.93;3.50;;;6.40;99.90;;;;;;5071465;28;20424;-69
2023/12/20 05:57:00;;;;;;;10.00;3.33;;;6.50;99.90;;;;;;5071679;28;20541;-69
2023/12/20 05:59:26;;;;;;;12.10;3.37;;;6.40;99.90;;;;;;5071596;28;20170;-70
2023/12/20 06:01:51;;;;;;;9.37;3.30;;;6.40;99.90;;;;;;5071310;28;20515;-71
2023/12/20 06:04:17;;;;;;;11.00;3.37;;;6.40;99.90;;;;;;5071452;28;20222;-70
2023/12/20 06:06:43;;;;;;;13.30;3.60;;;6.50;99.90;;;;;;5071439;28;20166;-69
2023/12/20 06:09:08;;;;;;;8.10;3.53;;;6.50;99.90;;;;;;5069830;28;20177;-69
2023/12/20 06:11:34;;;;;;;8.60;5.20;;;6.60;99.90;;;;;;5065707;28;20307;-71
2023/12/20 06:13:59;;;;;;;21.83;3.30;;;6.70;99.90;;;;;;5071123;28;20227;-71
2023/12/20 06:16:25;;;;;;;10.57;3.17;;;6.70;99.90;;;;;;5071306;28;20162;-70
2023/12/20 06:18:50;;;;;;;13.10;2.67;;;6.70;99.90;;;;;;5071481;28;20162;-72
2023/12/20 06:21:16;;;;;;;10.57;2.97;;;6.70;99.90;;;;;;5071134;28;20182;-71
2023/12/20 06:23:41;;;;;;;9.03;2.83;;;6.80;99.90;;;;;;5071492;28;20510;-71
2023/12/20 06:26:07;;;;;;;4.77;2.90;;;6.80;99.90;;;;;;5071142;28;20716;-71
2023/12/20 06:28:32;;;;;;;7.27;3.30;;;6.90;99.90;;;;;;5069658;28;20273;-70
2023/12/20 06:30:58;;;;;;;8.87;3.73;;;6.90;99.90;;;;;;5066914;28;20189;-72
2023/12/20 06:33:24;;;;;;;7.80;3.20;;;7.00;99.90;;;;;;5070979;28;20196;-71
2023/12/20 06:35:50;;;;;;;5.37;2.10;;;7.00;99.90;;;;;;5071228;28;20955;-71
2023/12/20 06:38:17;;;;;;;12.03;4.17;;;7.10;99.90;;;;;;5074417;28;20166;-71
2023/12/20 06:40:42;;;;;;;11.93;3.57;;;7.00;99.90;;;;;;5074511;28;20174;-71
2023/12/20 06:43:08;;;;;;;8.60;3.47;;;7.00;99.90;;;;;;5074569;28;20408;-71
2023/12/20 06:45:34;;;;;;;9.83;3.70;;;7.00;99.90;;;;;;5074748;28;20184;-71
2023/12/20 06:47:59;;;;;;;8.17;3.33;;;7.10;99.90;;;;;;5074639;28;20237;-71
2023/12/20 06:50:25;;;;;;;17.83;3.40;;;7.10;99.90;;;;;;5074333;28;20401;-70
2023/12/20 06:52:51;;;;;;;10.47;2.83;;;7.10;99.90;;;;;;5074160;28;20277;-72
2023/12/20 06:55:17;;;;;;;16.93;3.83;;;7.10;99.90;;;;;;5074527;28;20182;-72
2023/12/20 06:57:42;;;;;;;6.10;2.60;;;7.20;99.90;;;;;;5074469;28;20438;-71
2023/12/20 07:00:10;;;;;;;5.90;3.17;;;7.10;99.90;;;;;;5074078;28;20163;-72
2023/12/20 07:02:36;;;;;;;9.03;2.87;;;7.10;99.90;;;;;;5074240;28;20278;-71
2023/12/20 07:05:01;;;;;;;5.80;2.80;;;7.20;99.90;;;;;;5074386;28;20967;-70
2023/12/20 07:07:27;;;;;;;7.40;3.10;;;7.30;99.90;;;;;;5074363;28;20178;-72
2023/12/20 07:09:52;;;;;;;9.60;2.70;;;7.10;99.90;;;;;;5074165;28;20170;-71
2023/12/20 07:12:20;;;;;;;9.40;3.17;;;7.10;99.90;;;;;;5074032;28;20197;-71
2023/12/20 07:14:46;;;;;;;13.87;3.90;;;7.20;99.90;;;;;;5074258;28;20184;-71
2023/12/20 07:17:13;;;;;;;6.23;3.20;;;7.30;99.90;;;;;;5074224;28;20879;-72
2023/12/20 07:19:39;;;;;;;15.93;4.10;;;7.20;99.90;;;;;;5073817;28;20408;-72
2023/12/20 07:22:06;;;;;;;8.73;2.53;;;7.20;99.90;;;;;;5073963;28;20930;-71
2023/12/20 07:24:32;;;;;;;7.47;3.17;;;7.10;99.90;;;;;;5073950;28;20495;-70
2023/12/20 07:26:59;;;;;;;7.27;2.90;;;7.10;99.90;;;;;;5066388;28;20424;-70
2023/12/20 07:29:24;;;;;;;15.10;3.40;;;7.00;99.90;;;;;;5067383;28;20425;-71
2023/12/20 07:31:51;;;;;;;7.67;4.07;;;7.10;99.90;;;;;;5068557;28;20954;-70
2023/12/20 07:34:17;;;;;;;6.60;3.50;;;7.10;99.90;;;;;;5073637;28;20193;-71
2023/12/20 07:36:43;;;;;;;13.67;3.63;;;7.10;99.90;;;;;;5073722;28;20436;-71
2023/12/20 07:39:08;;;;;;;12.03;3.60;;;7.10;99.90;;;;;;5073575;28;20393;-71
2023/12/20 07:41:34;;;;;;;9.70;3.73;;;7.20;99.90;;;;;;5071930;28;20253;-70
2023/12/20 07:43:59;;;;;;;7.60;3.93;;;7.10;99.90;;;;;;5073463;28;20257;-72
2023/12/20 07:46:25;;;;;;;14.80;4.40;;;7.20;99.90;;;;;;5073563;28;20161;-71
2023/12/20 07:48:51;;;;;;;15.13;3.63;;;7.20;99.90;;;;;;5072516;28;20174;-71
2023/12/20 07:51:17;;;;;;;5.20;3.17;;;7.20;99.90;;;;;;5073176;28;20194;-71
2023/12/20 07:53:42;;;;;;;9.43;3.77;;;7.20;99.90;;;;;;5073110;28;20243;-71
2023/12/20 07:56:17;;;;;;;8.40;4.00;;;7.20;99.90;;;;;;5073322;28;20420;-72
2023/12/20 07:58:43;;;;;;;7.17;3.10;;;7.20;99.90;;;;;;5072074;28;20246;-71
2023/12/20 08:01:09;;;;;;;18.03;3.60;;;7.20;99.90;;;;;;5071776;28;20511;-70
2023/12/20 08:03:35;;;;;;;16.93;2.53;;;7.20;99.90;;;;;;5073101;28;20415;-71
2023/12/20 08:06:00;;;;;;;9.33;3.40;;;7.20;99.90;;;;;;5073041;28;20408;-70
2023/12/20 08:08:26;;;;;;;11.10;4.73;;;7.20;99.90;;;;;;5073087;28;20170;-71
2023/12/20 08:10:51;;;;;;;8.20;3.53;;;7.20;99.90;;;;;;5072823;28;20197;-72
2023/12/20 08:13:17;;;;;;;9.23;3.53;;;7.10;99.90;;;;;;5072898;28;20204;-71
2023/12/20 08:15:42;;;;;;;12.00;4.40;;;7.10;99.90;;;;;;5070430;28;20560;-70
2023/12/20 08:18:08;;;;;;;6.93;4.73;;;7.10;99.90;;;;;;5069122;28;20166;-71
2023/12/20 08:20:33;;;;;;;7.33;4.37;;;7.20;99.90;;;;;;5072392;28;20188;-72
2023/12/20 08:22:59;;;;;;;7.70;3.80;;;7.20;99.90;;;;;;5061774;28;20198;-70
2023/12/20 08:25:24;;;;;;;9.13;4.70;;;7.40;99.90;;;;;;5072682;28;20182;-71
2023/12/20 08:27:50;;;;;;;10.13;4.50;;;7.70;99.90;;;;;;5072657;28;20179;-72
2023/12/20 08:30:20;;;;;;;14.43;3.90;;;8.00;99.90;;;;;;5065112;28;20178;-71
2023/12/20 08:32:46;;;;;;;27.47;3.67;;;8.20;99.90;;;;;;5069639;28;20289;-71
2023/12/20 08:35:11;;;;;;;10.07;3.20;;;8.20;99.90;;;;;;5072474;28;20487;-71
2023/12/20 08:37:37;;;;;;;7.83;3.37;;;8.10;99.90;;;;;;5072264;28;20265;-72
2023/12/20 08:40:02;;;;;;;6.37;2.80;;;7.90;99.90;;;;;;5072169;28;20257;-71
2023/12/20 08:42:31;;;;;;;4.10;2.27;;;7.90;99.90;;;;;;5072335;28;20224;-71
2023/12/20 08:44:58;;;;;;;10.93;3.30;;;7.90;99.90;;;;;;5072494;28;20173;-72
2023/12/20 08:47:24;;;;;;;12.67;4.00;;;8.00;99.90;;;;;;5072364;28;20474;-71
2023/12/20 08:49:49;;;;;;;13.20;5.33;;;8.10;99.90;;;;;;5070842;28;20400;-71
2023/12/20 08:52:15;;;;;;;5.97;2.60;;;8.40;99.90;;;;;;5071916;28;20304;-72
2023/12/20 08:54:40;;;;;;;5.93;2.60;;;9.00;99.90;;;;;;5068607;28;20186;-72
2023/12/20 08:57:06;;;;;;;10.60;3.20;;;9.10;99.90;;;;;;5067856;28;20672;-71
2023/12/20 08:59:32;;;;;;;11.13;2.70;;;9.10;99.90;;;;;;5071835;28;20177;-71
2023/12/20 09:01:58;;;;;;;13.03;2.60;;;9.10;99.90;;;;;;5071737;28;20939;-71
2023/12/20 09:04:23;;;;;;;6.27;3.43;;;9.10;99.90;;;;;;5072131;28;20255;-70
2023/12/20 09:06:49;;;;;;;8.93;3.10;;;9.30;99.90;;;;;;5072138;28;20166;-71
2023/12/20 09:09:14;;;;;;;5.53;2.70;;;9.40;99.90;;;;;;5072056;28;20167;-72
2023/12/20 09:11:40;;;;;;;7.63;2.77;;;9.40;99.90;;;;;;5071697;28;20530;-72
2023/12/20 09:14:06;;;;;;;7.30;3.13;;;9.10;99.90;;;;;;5071994;28;20171;-71
2023/12/20 09:16:31;;;;;;;9.13;3.10;;;9.00;99.90;;;;;;5072002;28;20491;-70
2023/12/20 09:18:57;;;;;;;9.63;2.60;;;8.90;99.90;;;;;;5071974;28;20193;-72
2023/12/20 09:21:23;;;;;;;6.53;2.70;;;8.70;99.90;;;;;;5071464;28;20190;-71
2023/12/20 09:23:49;;;;;;;6.03;2.40;;;8.50;99.90;;;;;;5071771;28;20443;-71
2023/12/20 09:26:14;;;;;;;5.77;2.50;;;8.50;99.90;;;;;;5066380;28;20178;-71
2023/12/20 09:28:40;;;;;;;8.73;2.90;;;8.30;99.90;;;;;;5069023;28;20253;-71
2023/12/20 09:31:06;;;;;;;17.10;3.50;;;8.20;99.90;;;;;;5068936;28;20673;-72
2023/12/20 09:33:32;;;;;;;4.67;2.60;;;8.10;99.90;;;;;;5071587;28;20259;-72
2023/12/20 09:35:58;;;;;;;10.67;3.53;;;8.10;99.90;;;;;;5071720;28;20404;-71
2023/12/20 09:38:23;;;;;;;12.03;2.90;;;8.10;99.90;;;;;;5071644;28;20411;-71
2023/12/20 09:40:49;;;;;;;9.97;3.53;;;8.20;99.90;;;;;;5071465;28;20204;-71
2023/12/20 09:43:15;;;;;;;9.80;3.03;;;8.30;99.90;;;;;;5068363;28;20174;-71
2023/12/20 09:45:44;;;;;;;11.60;2.83;;;8.20;99.90;;;;;;5061162;28;20284;-72
2023/12/20 09:48:11;;;;;;;5.87;2.60;;;8.30;99.90;;;;;;5071531;28;20466;-71
2023/12/20 09:50:37;;;;;;;9.67;2.30;;;8.30;99.90;;;;;;5071427;28;20408;-71
2023/12/20 09:53:04;;;;;;;8.40;3.07;;;8.20;99.90;;;;;;5071197;28;20513;-71
2023/12/20 09:55:32;;;;;;;7.73;2.93;;;8.20;99.90;;;;;;5071669;28;20193;-72
2023/12/20 09:57:57;;;;;;;16.87;2.97;;;8.30;99.90;;;;;;5071673;28;20998;-71
2023/12/20 10:00:23;;;;;;;6.20;2.60;;;8.30;99.90;;;;;;5071623;28;20479;-72
2023/12/20 10:02:57;;;;;;;7.40;3.33;;;8.30;99.90;;;;;;5071358;28;20182;-70
2023/12/20 10:05:36;;;;;;;10.83;3.00;;;8.30;99.90;;;;;;5071640;28;20196;-70
2023/12/20 10:08:03;;;;;;;10.53;2.87;;;8.20;99.90;;;;;;5070334;28;20432;-71
2023/12/20 10:10:28;;;;;;;11.23;3.13;;;8.20;99.90;;;;;;5071729;28;20796;-71
2023/12/20 10:13:10;;;;;;;8.73;3.03;;;8.10;99.90;;;;;;5074169;28;20208;-72
2023/12/20 10:15:37;;;;;;;5.60;2.37;;;8.00;99.90;;;;;;5075314;28;20189;-71
2023/12/20 10:18:04;;;;;;;7.43;2.77;;;8.00;99.90;;;;;;5075340;28;20767;-70
2023/12/20 10:20:30;;;;;;;6.27;2.30;;;8.10;99.90;;;;;;5075060;28;20408;-71
2023/12/20 10:22:57;;;;;;;3.73;2.90;;;8.20;99.90;;;;;;5074902;28;20424;-71
2023/12/20 10:25:23;;;;;;;17.97;2.93;;;8.30;99.90;;;;;;5075130;28;20458;-71
2023/12/20 10:28:07;;;;;;;7.20;3.70;;;8.20;99.90;;;;;;5075135;28;20447;-71
2023/12/20 10:30:33;;;;;;;8.27;2.90;;;8.20;99.90;;;;;;5074931;28;20396;-71
2023/12/20 10:32:58;;;;;;;7.20;2.73;;;8.20;99.90;;;;;;5074797;28;20513;-71
2023/12/20 10:35:24;;;;;;;5.83;3.53;;;8.30;99.90;;;;;;5074911;28;20170;-71
2023/12/20 10:37:52;;;;;;;8.57;2.97;;;8.30;99.90;;;;;;5074890;28;20174;-71
2023/12/20 10:40:17;;;;;;;7.80;3.03;;;8.30;99.90;;;;;;5074664;28;20173;-71
2023/12/20 10:42:43;;;;;;;8.90;3.37;;;8.20;99.90;;;;;;5074683;28;20432;-71
2023/12/20 10:45:09;;;;;;;5.27;2.40;;;8.20;99.90;;;;;;5074845;28;20166;-71
2023/12/20 10:47:37;;;;;;;8.47;3.03;;;8.30;99.90;;;;;;5074787;28;20507;-72
2023/12/20 10:50:05;;;;;;;9.37;3.30;;;8.30;99.90;;;;;;5074443;28;20193;-72
2023/12/20 10:52:34;;;;;;;7.50;2.93;;;8.30;99.90;;;;;;5074230;28;21186;-70
2023/12/20 10:54:59;;;;;;;8.33;2.97;;;8.50;99.90;;;;;;5073462;28;20828;-71
2023/12/20 10:57:27;;;;;;;8.20;2.50;;;8.50;99.90;;;;;;5074516;28;20408;-72
2023/12/20 10:59:54;;;;;;;7.83;2.63;;;8.60;99.90;;;;;;5074355;28;20173;-71
2023/12/20 11:02:21;;;;;;;13.90;3.03;;;8.70;99.90;;;;;;5073022;28;20432;-72
2023/12/20 11:04:53;;;;;;;9.37;2.90;;;8.70;99.90;;;;;;5074311;28;20436;-72
2023/12/20 11:07:45;;;;;;;6.87;2.47;;;8.90;99.90;;;;;;5074347;28;20942;-71
2023/12/20 11:10:16;;;;;;;8.13;3.17;;;8.90;99.90;;;;;;5074119;28;20408;-71
2023/12/20 11:12:54;;;;;;;7.67;3.13;;;8.80;99.90;;;;;;5074019;28;20510;-71
2023/12/20 11:15:20;;;;;;;14.87;3.87;;;8.80;99.90;;;;;;5074274;28;20411;-70
2023/12/20 11:17:46;;;;;;;6.83;2.50;;;8.80;99.90;;;;;;5074171;28;20400;-72
2023/12/20 11:20:12;;;;;;;9.50;2.50;;;8.80;99.90;;;;;;5074020;28;20166;-71
2023/12/20 11:22:39;;;;;;;7.83;1.97;;;8.80;99.90;;;;;;5073303;28;20428;-71
2023/12/20 11:25:10;;;;;;;7.47;5.03;;;8.80;99.90;;;;;;5073474;28;20257;-71
2023/12/20 11:27:40;;;;;;;7.57;2.47;;;8.70;99.90;;;;;;5074021;28;20381;-71
2023/12/20 11:30:06;;;;;;;5.80;2.53;;;8.60;99.90;;;;;;5073761;28;20775;-71
2023/12/20 11:32:34;;;;;;;9.00;3.00;;;8.50;99.90;;;;;;5073660;28;20474;-72
2023/12/20 11:35:16;;;;;;;5.63;2.43;;;8.40;99.90;;;;;;5073956;28;20768;-71
2023/12/20 11:37:46;;;;;;;16.17;3.83;;;8.50;99.90;;;;;;5073747;28;20473;-71
2023/12/20 11:40:14;;;;;;;8.97;2.53;;;8.70;99.90;;;;;;5069065;28;20922;-71
2023/12/20 11:42:45;;;;;;;12.80;2.50;;;8.70;99.90;;;;;;5073409;28;20460;-71
2023/12/20 11:45:16;;;;;;;5.30;2.73;;;8.60;99.90;;;;;;5060970;28;20473;-71
2023/12/20 11:47:47;;;;;;;5.00;2.40;;;8.60;99.90;;;;;;5067716;28;20416;-72
2023/12/20 11:50:13;;;;;;;4.70;2.73;;;8.50;99.90;;;;;;5072963;28;20411;-71
2023/12/20 11:52:38;;;;;;;11.20;3.00;;;8.50;99.90;;;;;;5072995;28;20554;-71
2023/12/20 11:55:04;;;;;;;5.37;2.80;;;8.50;99.90;;;;;;5073220;28;20177;-71
2023/12/20 11:57:30;;;;;;;7.90;2.33;;;8.40;99.90;;;;;;5073456;28;20169;-71
2023/12/20 11:59:56;;;;;;;8.40;2.93;;;8.50;99.90;;;;;;5073179;28;20491;-72
2023/12/20 12:02:23;;;;;;;3.83;2.90;;;8.40;99.90;;;;;;5073251;28;20570;-71
2023/12/20 12:04:50;;;;;;;5.87;3.30;;;8.40;99.90;;;;;;5073207;28;20198;-69
2023/12/20 12:07:16;;;;;;;6.30;2.10;;;8.40;99.90;;;;;;5073233;28;20435;-72
2023/12/20 12:09:42;;;;;;;4.80;2.50;;;8.30;99.90;;;;;;5072990;28;20487;-71
2023/12/20 12:12:08;;;;;;;6.70;2.23;;;8.20;99.90;;;;;;5073031;28;20340;-72
2023/12/20 12:14:35;;;;;;;7.77;3.33;;;8.10;99.90;;;;;;5073125;28;20480;-71
2023/12/20 12:17:00;;;;;;;4.37;2.63;;;8.00;99.90;;;;;;5073077;28;20583;-72
2023/12/20 12:19:26;;;;;;;11.17;2.77;;;8.10;99.90;;;;;;5072940;28;20396;-71
2023/12/20 12:22:16;;;;;;;3.50;2.20;;;8.00;99.90;;;;;;5072584;28;20194;-71
2023/12/20 12:24:45;;;;;;;9.87;2.80;;;8.00;99.90;;;;;;5072800;28;20401;-71
2023/12/20 12:27:12;;;;;;;10.10;3.07;;;8.00;99.90;;;;;;5073186;28;20408;-70
2023/12/20 12:29:39;;;;;;;4.50;2.50;;;8.00;99.90;;;;;;5072544;28;20887;-72
2023/12/20 12:32:08;;;;;;;7.97;3.03;;;8.10;99.90;;;;;;5072464;28;20978;-71
2023/12/20 12:34:37;;;;;;;9.30;3.17;;;8.10;99.90;;;;;;5072146;28;20900;-72
2023/12/20 12:37:04;;;;;;;7.70;3.27;;;8.00;99.90;;;;;;5072719;28;20775;-72
2023/12/20 12:39:30;;;;;;;5.60;2.93;;;8.10;99.90;;;;;;5072587;28;20436;-71
2023/12/20 12:41:56;;;;;;;7.00;2.40;;;8.20;99.90;;;;;;5072245;28;20420;-70
2023/12/20 12:44:24;;;;;;;9.60;3.30;;;8.20;99.90;;;;;;5072359;28;20410;-71
2023/12/20 12:46:51;;;;;;;7.17;3.20;;;8.40;99.90;;;;;;5072471;28;20424;-71
2023/12/20 12:49:17;;;;;;;4.80;3.17;;;8.50;99.90;;;;;;5072428;28;20412;-72